sensor_id;sensor_type;location;lat;lon;timestamp;temperature;humidity
78212;SHT31;67490;52.086;5.122;2023-07-30T00:00:32;21.42;58.75
78212;SHT31;67490;52.086;5.122;2023-07-30T00:03:17;21.36;58.38
78212;SHT31;67490;52.086;5.122;2023-07-30T00:06:01;21.38;58.43
78212;SHT31;67490;52.086;5.122;2023-07-30T00:08:46;21.27;58.98
78212;SHT31;67490;52.086;5.122;2023-07-30T00:11:30;21.29;58.94
78212;SHT31;67490;52.086;5.122;2023-07-30T00:14:15;21.28;59.42
78212;SHT31;67490;52.086;5.122;2023-07-30T00:17:00;21.27;59.33
78212;SHT31;67490;52.086;5.122;2023-07-30T00:19:45;21.21;59.19
78212;SHT31;67490;52.086;5.122;2023-07-30T00:22:29;21.21;59.26
78212;SHT31;67490;52.086;5.122;2023-07-30T00:25:13;21.22;59.30
78212;SHT31;67490;52.086;5.122;2023-07-30T00:27:57;21.24;59.49
78212;SHT31;67490;52.086;5.122;2023-07-30T00:30:43;21.18;59.61
78212;SHT31;67490;52.086;5.122;2023-07-30T00:33:28;21.17;59.56
78212;SHT31;67490;52.086;5.122;2023-07-30T00:36:12;21.09;59.83
78212;SHT31;67490;52.086;5.122;2023-07-30T00:38:56;21.12;59.97
78212;SHT31;67490;52.086;5.122;2023-07-30T00:41:41;21.07;60.10
78212;SHT31;67490;52.086;5.122;2023-07-30T00:44:25;21.04;60.56
78212;SHT31;67490;52.086;5.122;2023-07-30T00:47:12;21.02;60.48
78212;SHT31;67490;52.086;5.122;2023-07-30T00:49:56;20.91;60.88
78212;SHT31;67490;52.086;5.122;2023-07-30T00:52:41;21.01;60.92
78212;SHT31;67490;52.086;5.122;2023-07-30T00:55:26;20.94;61.28
78212;SHT31;67490;52.086;5.122;2023-07-30T00:58:11;20.94;61.50
78212;SHT31;67490;52.086;5.122;2023-07-30T01:00:56;20.97;61.45
78212;SHT31;67490;52.086;5.122;2023-07-30T01:03:41;21.08;61.38
78212;SHT31;67490;52.086;5.122;2023-07-30T01:06:26;21.07;61.29
78212;SHT31;67490;52.086;5.122;2023-07-30T01:09:11;21.01;61.49
78212;SHT31;67490;52.086;5.122;2023-07-30T01:11:56;20.92;61.87
78212;SHT31;67490;52.086;5.122;2023-07-30T01:14:40;20.95;61.97
78212;SHT31;67490;52.086;5.122;2023-07-30T01:17:25;20.99;61.87
78212;SHT31;67490;52.086;5.122;2023-07-30T01:20:11;21.02;61.71
78212;SHT31;67490;52.086;5.122;2023-07-30T01:22:57;20.98;62.10
78212;SHT31;67490;52.086;5.122;2023-07-30T01:25:44;20.98;62.05
78212;SHT31;67490;52.086;5.122;2023-07-30T01:28:35;21.01;62.12
78212;SHT31;67490;52.086;5.122;2023-07-30T01:31:26;21.04;62.24
78212;SHT31;67490;52.086;5.122;2023-07-30T01:34:11;20.81;62.83
78212;SHT31;67490;52.086;5.122;2023-07-30T01:36:57;20.95;62.62
78212;SHT31;67490;52.086;5.122;2023-07-30T01:39:46;21.02;62.52
78212;SHT31;67490;52.086;5.122;2023-07-30T01:42:31;21.02;62.51
78212;SHT31;67490;52.086;5.122;2023-07-30T01:45:16;20.99;62.70
78212;SHT31;67490;52.086;5.122;2023-07-30T01:48:01;20.91;62.96
78212;SHT31;67490;52.086;5.122;2023-07-30T01:50:45;20.83;63.28
78212;SHT31;67490;52.086;5.122;2023-07-30T01:53:32;20.66;63.81
78212;SHT31;67490;52.086;5.122;2023-07-30T01:56:18;20.50;64.55
78212;SHT31;67490;52.086;5.122;2023-07-30T01:59:03;20.51;64.63
78212;SHT31;67490;52.086;5.122;2023-07-30T02:01:47;20.53;64.53
78212;SHT31;67490;52.086;5.122;2023-07-30T02:04:31;20.54;64.74
78212;SHT31;67490;52.086;5.122;2023-07-30T02:07:16;20.61;64.49
78212;SHT31;67490;52.086;5.122;2023-07-30T02:10:01;20.76;64.44
78212;SHT31;67490;52.086;5.122;2023-07-30T02:12:47;20.84;64.08
78212;SHT31;67490;52.086;5.122;2023-07-30T02:15:31;20.77;64.15
78212;SHT31;67490;52.086;5.122;2023-07-30T02:18:15;20.76;64.46
78212;SHT31;67490;52.086;5.122;2023-07-30T02:21:00;20.63;64.85
78212;SHT31;67490;52.086;5.122;2023-07-30T02:23:44;20.71;64.84
78212;SHT31;67490;52.086;5.122;2023-07-30T02:26:28;20.71;64.77
78212;SHT31;67490;52.086;5.122;2023-07-30T02:29:14;20.67;64.96
78212;SHT31;67490;52.086;5.122;2023-07-30T02:31:58;20.68;65.10
78212;SHT31;67490;52.086;5.122;2023-07-30T02:34:43;20.71;65.10
78212;SHT31;67490;52.086;5.122;2023-07-30T02:37:28;20.70;65.12
78212;SHT31;67490;52.086;5.122;2023-07-30T02:40:12;20.61;65.40
78212;SHT31;67490;52.086;5.122;2023-07-30T02:42:56;20.73;65.28
78212;SHT31;67490;52.086;5.122;2023-07-30T02:45:42;20.70;65.48
78212;SHT31;67490;52.086;5.122;2023-07-30T02:48:26;20.68;65.52
78212;SHT31;67490;52.086;5.122;2023-07-30T02:51:10;20.60;65.84
78212;SHT31;67490;52.086;5.122;2023-07-30T02:53:57;20.74;65.63
78212;SHT31;67490;52.086;5.122;2023-07-30T02:56:43;20.57;65.93
78212;SHT31;67490;52.086;5.122;2023-07-30T02:59:28;20.67;65.85
78212;SHT31;67490;52.086;5.122;2023-07-30T03:02:13;20.74;65.77
78212;SHT31;67490;52.086;5.122;2023-07-30T03:04:57;20.77;65.66
78212;SHT31;67490;52.086;5.122;2023-07-30T03:07:41;20.66;65.98
78212;SHT31;67490;52.086;5.122;2023-07-30T03:10:25;20.66;66.05
78212;SHT31;67490;52.086;5.122;2023-07-30T03:13:10;20.59;66.53
78212;SHT31;67490;52.086;5.122;2023-07-30T03:15:54;20.70;66.17
78212;SHT31;67490;52.086;5.122;2023-07-30T03:18:40;20.63;66.40
78212;SHT31;67490;52.086;5.122;2023-07-30T03:21:25;20.61;66.52
78212;SHT31;67490;52.086;5.122;2023-07-30T03:24:09;20.53;66.77
78212;SHT31;67490;52.086;5.122;2023-07-30T03:26:53;20.59;66.58
78212;SHT31;67490;52.086;5.122;2023-07-30T03:29:37;20.54;66.72
78212;SHT31;67490;52.086;5.122;2023-07-30T03:32:21;20.51;66.94
78212;SHT31;67490;52.086;5.122;2023-07-30T03:35:08;20.59;66.89
78212;SHT31;67490;52.086;5.122;2023-07-30T03:37:52;20.64;66.74
78212;SHT31;67490;52.086;5.122;2023-07-30T03:40:37;20.64;67.00
78212;SHT31;67490;52.086;5.122;2023-07-30T03:43:21;20.67;66.96
78212;SHT31;67490;52.086;5.122;2023-07-30T03:46:05;20.76;66.70
78212;SHT31;67490;52.086;5.122;2023-07-30T03:48:50;20.81;66.61
78212;SHT31;67490;52.086;5.122;2023-07-30T03:51:35;20.74;66.70
78212;SHT31;67490;52.086;5.122;2023-07-30T03:54:20;20.81;66.65
78212;SHT31;67490;52.086;5.122;2023-07-30T03:57:04;20.83;66.50
78212;SHT31;67490;52.086;5.122;2023-07-30T03:59:48;20.83;66.55
78212;SHT31;67490;52.086;5.122;2023-07-30T04:02:32;20.71;67.28
78212;SHT31;67490;52.086;5.122;2023-07-30T04:05:17;20.71;67.26
78212;SHT31;67490;52.086;5.122;2023-07-30T04:08:03;20.63;67.46
78212;SHT31;67490;52.086;5.122;2023-07-30T04:10:47;20.64;67.67
78212;SHT31;67490;52.086;5.122;2023-07-30T04:13:32;20.66;67.75
78212;SHT31;67490;52.086;5.122;2023-07-30T04:16:16;20.77;67.48
78212;SHT31;67490;52.086;5.122;2023-07-30T04:19:00;20.77;67.38
78212;SHT31;67490;52.086;5.122;2023-07-30T04:21:45;20.81;67.50
78212;SHT31;67490;52.086;5.122;2023-07-30T04:24:30;20.83;67.53
78212;SHT31;67490;52.086;5.122;2023-07-30T04:27:15;20.70;67.93
78212;SHT31;67490;52.086;5.122;2023-07-30T04:29:59;20.73;68.09
78212;SHT31;67490;52.086;5.122;2023-07-30T04:32:43;20.83;67.74
78212;SHT31;67490;52.086;5.122;2023-07-30T04:35:28;20.91;67.61
78212;SHT31;67490;52.086;5.122;2023-07-30T04:38:12;20.90;67.63
78212;SHT31;67490;52.086;5.122;2023-07-30T04:40:59;20.78;67.88
78212;SHT31;67490;52.086;5.122;2023-07-30T04:43:43;20.74;68.18
78212;SHT31;67490;52.086;5.122;2023-07-30T04:46:27;20.80;68.26
78212;SHT31;67490;52.086;5.122;2023-07-30T04:49:11;20.88;68.14
78212;SHT31;67490;52.086;5.122;2023-07-30T04:51:55;20.95;67.76
78212;SHT31;67490;52.086;5.122;2023-07-30T04:54:39;20.97;67.78
78212;SHT31;67490;52.086;5.122;2023-07-30T04:57:25;21.02;67.70
78212;SHT31;67490;52.086;5.122;2023-07-30T05:00:11;21.01;67.74
78212;SHT31;67490;52.086;5.122;2023-07-30T05:02:55;21.02;67.81
78212;SHT31;67490;52.086;5.122;2023-07-30T05:05:40;21.14;67.53
78212;SHT31;67490;52.086;5.122;2023-07-30T05:08:24;21.18;67.33
78212;SHT31;67490;52.086;5.122;2023-07-30T05:11:09;21.22;67.25
78212;SHT31;67490;52.086;5.122;2023-07-30T05:13:55;21.27;67.07
78212;SHT31;67490;52.086;5.122;2023-07-30T05:16:39;21.31;67.13
78212;SHT31;67490;52.086;5.122;2023-07-30T05:19:23;21.31;67.23
78212;SHT31;67490;52.086;5.122;2023-07-30T05:22:08;21.25;67.31
78212;SHT31;67490;52.086;5.122;2023-07-30T05:24:53;21.35;67.14
78212;SHT31;67490;52.086;5.122;2023-07-30T05:27:37;21.39;67.03
78212;SHT31;67490;52.086;5.122;2023-07-30T05:30:23;21.35;67.08
78212;SHT31;67490;52.086;5.122;2023-07-30T05:33:07;21.38;67.08
78212;SHT31;67490;52.086;5.122;2023-07-30T05:35:51;21.39;67.05
78212;SHT31;67490;52.086;5.122;2023-07-30T05:38:36;21.41;66.99
78212;SHT31;67490;52.086;5.122;2023-07-30T05:41:20;21.19;67.44
78212;SHT31;67490;52.086;5.122;2023-07-30T05:44:05;21.18;67.77
78212;SHT31;67490;52.086;5.122;2023-07-30T05:46:51;21.18;67.72
78212;SHT31;67490;52.086;5.122;2023-07-30T05:49:35;21.28;67.42
78212;SHT31;67490;52.086;5.122;2023-07-30T05:52:20;21.29;67.25
78212;SHT31;67490;52.086;5.122;2023-07-30T05:55:05;21.39;67.11
78212;SHT31;67490;52.086;5.122;2023-07-30T05:57:49;21.49;66.73
78212;SHT31;67490;52.086;5.122;2023-07-30T06:00:34;21.65;66.28
78212;SHT31;67490;52.086;5.122;2023-07-30T06:03:20;21.65;66.39
78212;SHT31;67490;52.086;5.122;2023-07-30T06:06:04;21.65;66.06
78212;SHT31;67490;52.086;5.122;2023-07-30T06:08:48;21.46;66.57
78212;SHT31;67490;52.086;5.122;2023-07-30T06:11:33;21.32;67.17
78212;SHT31;67490;52.086;5.122;2023-07-30T06:14:17;21.42;66.88
78212;SHT31;67490;52.086;5.122;2023-07-30T06:17:02;21.39;66.96
78212;SHT31;67490;52.086;5.122;2023-07-30T06:19:48;21.41;67.09
78212;SHT31;67490;52.086;5.122;2023-07-30T06:22:32;21.57;66.62
78212;SHT31;67490;52.086;5.122;2023-07-30T06:25:16;21.43;66.74
78212;SHT31;67490;52.086;5.122;2023-07-30T06:28:01;21.52;66.73
78212;SHT31;67490;52.086;5.122;2023-07-30T06:30:45;21.57;66.28
78212;SHT31;67490;52.086;5.122;2023-07-30T06:33:30;21.59;66.21
78212;SHT31;67490;52.086;5.122;2023-07-30T06:36:16;21.72;65.69
78212;SHT31;67490;52.086;5.122;2023-07-30T06:39:00;21.52;65.79
78212;SHT31;67490;52.086;5.122;2023-07-30T06:41:46;21.66;65.76
78212;SHT31;67490;52.086;5.122;2023-07-30T06:44:30;21.76;65.54
78212;SHT31;67490;52.086;5.122;2023-07-30T06:47:14;21.76;65.39
78212;SHT31;67490;52.086;5.122;2023-07-30T06:49:58;21.83;65.27
78212;SHT31;67490;52.086;5.122;2023-07-30T06:52:44;21.89;65.03
78212;SHT31;67490;52.086;5.122;2023-07-30T06:55:28;21.73;65.41
78212;SHT31;67490;52.086;5.122;2023-07-30T06:58:12;21.75;65.03
78212;SHT31;67490;52.086;5.122;2023-07-30T07:00:58;21.75;64.93
78212;SHT31;67490;52.086;5.122;2023-07-30T07:03:42;21.55;65.15
78212;SHT31;67490;52.086;5.122;2023-07-30T07:06:26;21.48;65.65
78212;SHT31;67490;52.086;5.122;2023-07-30T07:09:12;21.36;65.85
78212;SHT31;67490;52.086;5.122;2023-07-30T07:11:56;21.53;65.31
78212;SHT31;67490;52.086;5.122;2023-07-30T07:14:41;21.41;65.44
78212;SHT31;67490;52.086;5.122;2023-07-30T07:17:27;21.50;65.63
78212;SHT31;67490;52.086;5.122;2023-07-30T07:20:11;21.53;65.15
78212;SHT31;67490;52.086;5.122;2023-07-30T07:22:56;21.65;65.02
78212;SHT31;67490;52.086;5.122;2023-07-30T07:25:43;21.53;64.88
78212;SHT31;67490;52.086;5.122;2023-07-30T07:28:28;21.49;65.01
78212;SHT31;67490;52.086;5.122;2023-07-30T07:31:12;21.60;64.76
78212;SHT31;67490;52.086;5.122;2023-07-30T07:33:56;21.82;64.32
78212;SHT31;67490;52.086;5.122;2023-07-30T07:36:40;22.03;63.85
78212;SHT31;67490;52.086;5.122;2023-07-30T07:39:25;22.27;62.98
78212;SHT31;67490;52.086;5.122;2023-07-30T07:42:12;22.25;62.87
78212;SHT31;67490;52.086;5.122;2023-07-30T07:44:56;22.24;62.90
78212;SHT31;67490;52.086;5.122;2023-07-30T07:47:40;22.28;63.20
78212;SHT31;67490;52.086;5.122;2023-07-30T07:50:25;22.48;62.06
78212;SHT31;67490;52.086;5.122;2023-07-30T07:53:09;22.79;61.41
78212;SHT31;67490;52.086;5.122;2023-07-30T07:55:54;22.93;61.10
78212;SHT31;67490;52.086;5.122;2023-07-30T07:58:40;23.20;59.75
78212;SHT31;67490;52.086;5.122;2023-07-30T08:01:26;23.14;60.15
78212;SHT31;67490;52.086;5.122;2023-07-30T08:04:11;23.05;60.48
78212;SHT31;67490;52.086;5.122;2023-07-30T08:06:56;22.91;59.93
78212;SHT31;67490;52.086;5.122;2023-07-30T08:09:44;22.69;61.13
78212;SHT31;67490;52.086;5.122;2023-07-30T08:12:31;22.52;61.34
78212;SHT31;67490;52.086;5.122;2023-07-30T08:15:17;22.37;61.58
78212;SHT31;67490;52.086;5.122;2023-07-30T08:18:02;22.48;61.08
78212;SHT31;67490;52.086;5.122;2023-07-30T08:20:46;22.58;61.02
78212;SHT31;67490;52.086;5.122;2023-07-30T08:23:31;22.37;60.79
78212;SHT31;67490;52.086;5.122;2023-07-30T08:26:15;22.28;61.57
78212;SHT31;67490;52.086;5.122;2023-07-30T08:28:59;22.45;61.06
78212;SHT31;67490;52.086;5.122;2023-07-30T08:31:45;22.81;60.27
78212;SHT31;67490;52.086;5.122;2023-07-30T08:34:29;23.53;57.89
78212;SHT31;67490;52.086;5.122;2023-07-30T08:37:14;23.95;55.63
78212;SHT31;67490;52.086;5.122;2023-07-30T08:39:58;23.73;56.24
78212;SHT31;67490;52.086;5.122;2023-07-30T08:42:43;24.02;55.77
78212;SHT31;67490;52.086;5.122;2023-07-30T08:45:27;24.04;56.41
78212;SHT31;67490;52.086;5.122;2023-07-30T08:48:12;23.68;57.13
78212;SHT31;67490;52.086;5.122;2023-07-30T08:50:57;23.53;57.62
78212;SHT31;67490;52.086;5.122;2023-07-30T08:53:42;23.22;58.71
78212;SHT31;67490;52.086;5.122;2023-07-30T08:56:26;23.24;58.95
78212;SHT31;67490;52.086;5.122;2023-07-30T08:59:12;23.12;58.86
78212;SHT31;67490;52.086;5.122;2023-07-30T09:01:58;22.91;59.47
78212;SHT31;67490;52.086;5.122;2023-07-30T09:04:47;22.69;59.87
78212;SHT31;67490;52.086;5.122;2023-07-30T09:07:34;22.73;59.92
78212;SHT31;67490;52.086;5.122;2023-07-30T09:10:19;22.54;61.14
78212;SHT31;67490;52.086;5.122;2023-07-30T09:13:03;22.49;61.64
78212;SHT31;67490;52.086;5.122;2023-07-30T09:15:48;22.43;61.05
78212;SHT31;67490;52.086;5.122;2023-07-30T09:18:39;22.43;60.69
78212;SHT31;67490;52.086;5.122;2023-07-30T09:21:31;22.62;59.92
78212;SHT31;67490;52.086;5.122;2023-07-30T09:24:21;22.92;58.99
78212;SHT31;67490;52.086;5.122;2023-07-30T09:27:06;23.06;58.61
78212;SHT31;67490;52.086;5.122;2023-07-30T09:29:51;22.89;59.09
78212;SHT31;67490;52.086;5.122;2023-07-30T09:32:36;22.76;59.06
78212;SHT31;67490;52.086;5.122;2023-07-30T09:35:22;22.75;59.64
78212;SHT31;67490;52.086;5.122;2023-07-30T09:38:10;22.77;59.37
78212;SHT31;67490;52.086;5.122;2023-07-30T09:41:00;22.86;59.26
78212;SHT31;67490;52.086;5.122;2023-07-30T09:43:45;23.61;57.35
78212;SHT31;67490;52.086;5.122;2023-07-30T09:46:29;24.28;54.61
78212;SHT31;67490;52.086;5.122;2023-07-30T09:49:15;24.67;52.58
78212;SHT31;67490;52.086;5.122;2023-07-30T09:52:00;24.30;51.66
78212;SHT31;67490;52.086;5.122;2023-07-30T09:54:48;23.78;52.76
78212;SHT31;67490;52.086;5.122;2023-07-30T09:57:34;23.51;52.88
78212;SHT31;67490;52.086;5.122;2023-07-30T10:00:19;23.51;52.93
78212;SHT31;67490;52.086;5.122;2023-07-30T10:03:04;24.05;51.78
78212;SHT31;67490;52.086;5.122;2023-07-30T10:05:55;24.00;51.52
78212;SHT31;67490;52.086;5.122;2023-07-30T10:08:45;23.68;52.38
78212;SHT31;67490;52.086;5.122;2023-07-30T10:11:31;23.86;52.35
78212;SHT31;67490;52.086;5.122;2023-07-30T10:14:20;24.63;51.14
78212;SHT31;67490;52.086;5.122;2023-07-30T10:17:10;24.88;50.21
78212;SHT31;67490;52.086;5.122;2023-07-30T10:19:55;24.60;51.03
78212;SHT31;67490;52.086;5.122;2023-07-30T10:22:39;24.57;51.97
78212;SHT31;67490;52.086;5.122;2023-07-30T10:25:28;24.56;51.05
78212;SHT31;67490;52.086;5.122;2023-07-30T10:28:31;24.02;50.21
78212;SHT31;67490;52.086;5.122;2023-07-30T10:31:16;24.15;50.39
78212;SHT31;67490;52.086;5.122;2023-07-30T10:34:07;24.70;49.07
78212;SHT31;67490;52.086;5.122;2023-07-30T10:36:54;25.57;47.68
78212;SHT31;67490;52.086;5.122;2023-07-30T10:39:39;26.33;45.94
78212;SHT31;67490;52.086;5.122;2023-07-30T10:42:23;26.78;44.60
78212;SHT31;67490;52.086;5.122;2023-07-30T10:45:09;26.65;44.09
78212;SHT31;67490;52.086;5.122;2023-07-30T10:48:03;26.59;43.76
78212;SHT31;67490;52.086;5.122;2023-07-30T10:50:48;26.31;43.44
78212;SHT31;67490;52.086;5.122;2023-07-30T10:53:33;25.42;45.24
78212;SHT31;67490;52.086;5.122;2023-07-30T10:56:21;24.94;46.60
78212;SHT31;67490;52.086;5.122;2023-07-30T10:59:06;24.70;48.13
78212;SHT31;67490;52.086;5.122;2023-07-30T11:01:53;24.26;48.14
78212;SHT31;67490;52.086;5.122;2023-07-30T11:04:37;24.05;49.10
78212;SHT31;67490;52.086;5.122;2023-07-30T11:07:21;24.23;49.18
78212;SHT31;67490;52.086;5.122;2023-07-30T11:10:07;24.15;47.60
78212;SHT31;67490;52.086;5.122;2023-07-30T11:12:52;23.81;48.64
78212;SHT31;67490;52.086;5.122;2023-07-30T11:15:41;24.02;48.68
78212;SHT31;67490;52.086;5.122;2023-07-30T11:18:30;24.11;48.79
78212;SHT31;67490;52.086;5.122;2023-07-30T11:21:17;24.02;49.50
78212;SHT31;67490;52.086;5.122;2023-07-30T11:24:02;23.97;50.05
78212;SHT31;67490;52.086;5.122;2023-07-30T11:26:57;24.06;49.82
78212;SHT31;67490;52.086;5.122;2023-07-30T11:29:53;24.22;50.28
78212;SHT31;67490;52.086;5.122;2023-07-30T11:32:38;24.60;50.17
78212;SHT31;67490;52.086;5.122;2023-07-30T11:35:24;24.57;49.81
78212;SHT31;67490;52.086;5.122;2023-07-30T11:38:09;24.73;50.07
78212;SHT31;67490;52.086;5.122;2023-07-30T11:40:54;24.77;49.38
78212;SHT31;67490;52.086;5.122;2023-07-30T11:43:41;24.71;48.62
78212;SHT31;67490;52.086;5.122;2023-07-30T11:46:25;24.59;48.94
78212;SHT31;67490;52.086;5.122;2023-07-30T11:49:12;24.40;49.52
78212;SHT31;67490;52.086;5.122;2023-07-30T11:52:05;24.22;49.49
78212;SHT31;67490;52.086;5.122;2023-07-30T11:54:59;24.11;49.81
78212;SHT31;67490;52.086;5.122;2023-07-30T11:57:44;24.12;49.99
78212;SHT31;67490;52.086;5.122;2023-07-30T12:00:29;24.15;49.77
78212;SHT31;67490;52.086;5.122;2023-07-30T12:03:15;24.26;49.60
78212;SHT31;67490;52.086;5.122;2023-07-30T12:06:04;24.21;49.42
78212;SHT31;67490;52.086;5.122;2023-07-30T12:08:51;24.21;48.65
78212;SHT31;67490;52.086;5.122;2023-07-30T12:11:44;24.23;48.25
78212;SHT31;67490;52.086;5.122;2023-07-30T12:14:43;24.28;48.52
78212;SHT31;67490;52.086;5.122;2023-07-30T12:17:27;23.97;48.40
78212;SHT31;67490;52.086;5.122;2023-07-30T12:20:12;23.77;49.53
78212;SHT31;67490;52.086;5.122;2023-07-30T12:22:56;24.01;49.68
78212;SHT31;67490;52.086;5.122;2023-07-30T12:25:42;24.02;49.26
78212;SHT31;67490;52.086;5.122;2023-07-30T12:28:26;24.02;50.41
78212;SHT31;67490;52.086;5.122;2023-07-30T12:31:11;24.29;48.60
78212;SHT31;67490;52.086;5.122;2023-07-30T12:33:56;24.21;49.05
78212;SHT31;67490;52.086;5.122;2023-07-30T12:36:40;24.19;49.31
78212;SHT31;67490;52.086;5.122;2023-07-30T12:39:25;24.15;49.87
78212;SHT31;67490;52.086;5.122;2023-07-30T12:42:11;24.01;50.04
78212;SHT31;67490;52.086;5.122;2023-07-30T12:44:55;23.91;50.06
78212;SHT31;67490;52.086;5.122;2023-07-30T12:47:40;24.06;50.72
78212;SHT31;67490;52.086;5.122;2023-07-30T12:50:25;24.28;50.51
78212;SHT31;67490;52.086;5.122;2023-07-30T12:53:09;24.36;49.12
78212;SHT31;67490;52.086;5.122;2023-07-30T12:55:54;24.52;48.89
78212;SHT31;67490;52.086;5.122;2023-07-30T12:58:40;24.42;47.42
78212;SHT31;67490;52.086;5.122;2023-07-30T13:01:24;24.50;46.79
78212;SHT31;67490;52.086;5.122;2023-07-30T13:04:09;24.63;45.22
78212;SHT31;67490;52.086;5.122;2023-07-30T13:06:54;24.48;45.21
78212;SHT31;67490;52.086;5.122;2023-07-30T13:09:38;24.11;46.24
78212;SHT31;67490;52.086;5.122;2023-07-30T13:12:22;24.23;45.80
78212;SHT31;67490;52.086;5.122;2023-07-30T13:15:08;24.15;45.76
78212;SHT31;67490;52.086;5.122;2023-07-30T13:17:53;24.28;46.09
78212;SHT31;67490;52.086;5.122;2023-07-30T13:20:38;24.05;45.64
78212;SHT31;67490;52.086;5.122;2023-07-30T13:23:22;23.82;45.75
78212;SHT31;67490;52.086;5.122;2023-07-30T13:26:09;23.82;45.89
78212;SHT31;67490;52.086;5.122;2023-07-30T13:28:54;24.05;45.38
78212;SHT31;67490;52.086;5.122;2023-07-30T13:31:40;24.15;44.98
78212;SHT31;67490;52.086;5.122;2023-07-30T13:34:24;24.18;45.52
78212;SHT31;67490;52.086;5.122;2023-07-30T13:37:09;24.37;46.02
78212;SHT31;67490;52.086;5.122;2023-07-30T13:39:53;24.40;46.54
78212;SHT31;67490;52.086;5.122;2023-07-30T13:42:38;24.44;46.55
78212;SHT31;67490;52.086;5.122;2023-07-30T13:45:23;24.49;45.91
78212;SHT31;67490;52.086;5.122;2023-07-30T13:48:08;24.63;45.77
78212;SHT31;67490;52.086;5.122;2023-07-30T13:50:53;24.83;45.63
78212;SHT31;67490;52.086;5.122;2023-07-30T13:53:38;24.76;45.87
78212;SHT31;67490;52.086;5.122;2023-07-30T13:56:25;24.44;47.21
78212;SHT31;67490;52.086;5.122;2023-07-30T13:59:09;24.12;48.22
78212;SHT31;67490;52.086;5.122;2023-07-30T14:01:53;24.01;47.61
78212;SHT31;67490;52.086;5.122;2023-07-30T14:04:39;23.95;48.05
78212;SHT31;67490;52.086;5.122;2023-07-30T14:07:24;23.77;47.91
78212;SHT31;67490;52.086;5.122;2023-07-30T14:10:08;23.81;47.74
78212;SHT31;67490;52.086;5.122;2023-07-30T14:12:53;24.02;47.92
78212;SHT31;67490;52.086;5.122;2023-07-30T14:15:37;24.05;47.83
78212;SHT31;67490;52.086;5.122;2023-07-30T14:18:22;23.88;48.13
78212;SHT31;67490;52.086;5.122;2023-07-30T14:21:08;23.85;48.10
78212;SHT31;67490;52.086;5.122;2023-07-30T14:23:52;23.81;48.62
78212;SHT31;67490;52.086;5.122;2023-07-30T14:26:37;23.77;49.31
78212;SHT31;67490;52.086;5.122;2023-07-30T14:29:21;23.74;49.65
78212;SHT31;67490;52.086;5.122;2023-07-30T14:32:06;23.88;50.34
78212;SHT31;67490;52.086;5.122;2023-07-30T14:34:50;23.92;50.00
78212;SHT31;67490;52.086;5.122;2023-07-30T14:37:36;24.01;49.64
78212;SHT31;67490;52.086;5.122;2023-07-30T14:40:21;23.97;50.06
78212;SHT31;67490;52.086;5.122;2023-07-30T14:43:06;23.89;50.35
78212;SHT31;67490;52.086;5.122;2023-07-30T14:45:50;24.05;49.94
78212;SHT31;67490;52.086;5.122;2023-07-30T14:48:35;23.89;49.82
78212;SHT31;67490;52.086;5.122;2023-07-30T14:51:19;24.09;49.46
78212;SHT31;67490;52.086;5.122;2023-07-30T14:54:05;24.09;48.90
78212;SHT31;67490;52.086;5.122;2023-07-30T14:56:49;24.05;48.70
78212;SHT31;67490;52.086;5.122;2023-07-30T14:59:34;23.91;48.40
78212;SHT31;67490;52.086;5.122;2023-07-30T15:02:19;23.88;47.41
78212;SHT31;67490;52.086;5.122;2023-07-30T15:05:04;24.02;47.19
78212;SHT31;67490;52.086;5.122;2023-07-30T15:07:48;24.12;47.01
78212;SHT31;67490;52.086;5.122;2023-07-30T15:10:35;24.21;45.93
78212;SHT31;67490;52.086;5.122;2023-07-30T15:13:19;24.06;46.53
78212;SHT31;67490;52.086;5.122;2023-07-30T15:16:04;24.08;46.97
78212;SHT31;67490;52.086;5.122;2023-07-30T15:18:49;24.13;47.31
78212;SHT31;67490;52.086;5.122;2023-07-30T15:21:33;24.09;47.57
78212;SHT31;67490;52.086;5.122;2023-07-30T15:24:20;24.18;47.83
78212;SHT31;67490;52.086;5.122;2023-07-30T15:27:06;24.13;47.49
78212;SHT31;67490;52.086;5.122;2023-07-30T15:29:51;24.04;48.15
78212;SHT31;67490;52.086;5.122;2023-07-30T15:32:41;24.06;48.63
78212;SHT31;67490;52.086;5.122;2023-07-30T15:35:26;24.08;49.00
78212;SHT31;67490;52.086;5.122;2023-07-30T15:38:11;24.12;49.32
78212;SHT31;67490;52.086;5.122;2023-07-30T15:40:55;24.11;49.05
78212;SHT31;67490;52.086;5.122;2023-07-30T15:43:41;24.18;49.44
78212;SHT31;67490;52.086;5.122;2023-07-30T15:46:26;24.11;49.81
78212;SHT31;67490;52.086;5.122;2023-07-30T15:49:10;24.18;50.25
78212;SHT31;67490;52.086;5.122;2023-07-30T15:51:55;24.01;50.51
78212;SHT31;67490;52.086;5.122;2023-07-30T15:54:40;23.88;51.50
78212;SHT31;67490;52.086;5.122;2023-07-30T15:57:24;23.86;51.97
78212;SHT31;67490;52.086;5.122;2023-07-30T16:00:11;23.91;52.13
78212;SHT31;67490;52.086;5.122;2023-07-30T16:02:59;24.02;51.29
78212;SHT31;67490;52.086;5.122;2023-07-30T16:05:46;23.95;51.98
78212;SHT31;67490;52.086;5.122;2023-07-30T16:08:32;23.95;51.89
78212;SHT31;67490;52.086;5.122;2023-07-30T16:11:16;23.84;52.32
78212;SHT31;67490;52.086;5.122;2023-07-30T16:14:01;23.60;52.20
78212;SHT31;67490;52.086;5.122;2023-07-30T16:16:46;23.51;52.77
78212;SHT31;67490;52.086;5.122;2023-07-30T16:19:31;23.49;52.95
78212;SHT31;67490;52.086;5.122;2023-07-30T16:22:16;23.50;53.03
78212;SHT31;67490;52.086;5.122;2023-07-30T16:25:00;23.43;53.14
78212;SHT31;67490;52.086;5.122;2023-07-30T16:27:44;23.44;53.41
78212;SHT31;67490;52.086;5.122;2023-07-30T16:30:29;23.44;53.89
78212;SHT31;67490;52.086;5.122;2023-07-30T16:33:15;23.23;54.77
78212;SHT31;67490;52.086;5.122;2023-07-30T16:35:59;23.16;55.56
78212;SHT31;67490;52.086;5.122;2023-07-30T16:38:48;23.06;55.90
78212;SHT31;67490;52.086;5.122;2023-07-30T16:41:32;23.20;56.26
78212;SHT31;67490;52.086;5.122;2023-07-30T16:44:16;23.30;56.18
78212;SHT31;67490;52.086;5.122;2023-07-30T16:47:01;23.30;56.50
78212;SHT31;67490;52.086;5.122;2023-07-30T16:49:49;23.31;56.84
78212;SHT31;67490;52.086;5.122;2023-07-30T16:52:33;23.36;56.79
78212;SHT31;67490;52.086;5.122;2023-07-30T16:55:18;23.31;56.95
78212;SHT31;67490;52.086;5.122;2023-07-30T16:58:02;23.19;57.77
78212;SHT31;67490;52.086;5.122;2023-07-30T17:00:47;23.20;57.91
78212;SHT31;67490;52.086;5.122;2023-07-30T17:03:35;23.16;57.83
78212;SHT31;67490;52.086;5.122;2023-07-30T17:06:22;22.98;58.43
78212;SHT31;67490;52.086;5.122;2023-07-30T17:09:06;22.85;58.96
78212;SHT31;67490;52.086;5.122;2023-07-30T17:11:51;22.77;59.57
78212;SHT31;67490;52.086;5.122;2023-07-30T17:14:35;22.85;59.54
78212;SHT31;67490;52.086;5.122;2023-07-30T17:17:20;22.92;58.83
78212;SHT31;67490;52.086;5.122;2023-07-30T17:20:05;22.77;58.98
78212;SHT31;67490;52.086;5.122;2023-07-30T17:22:51;22.68;59.56